Time;durP1;ratioP1;P1;durP2;ratioP2;P2;SDS_P1;SDS_P2;PMS_P1;PMS_P2;Temp;Humidity;BMP_temperature;BMP_pressure;BME280_temperature;BME280_humidity;BME280_pressure;Samples;Min_cycle;Max_cycle;Signal;HPM_P1;HPM_P2
2023/07/14 00:02:23;;;;;;;;;;;15.20;99.90;;;;;;7304321;19;9494;-70
2023/07/14 00:04:52;;;;;;;;;;;15.20;99.90;;;;;;7307565;19;9454;-70
2023/07/14 00:07:23;;;;;;;;;;;15.20;99.90;;;;;;7305620;19;9412;-70
2023/07/14 00:09:53;;;;;;;;;;;15.20;99.90;;;;;;7305629;19;9358;-70
2023/07/14 00:12:22;;;;;;;;;;;15.20;99.90;;;;;;7307534;19;10872;-70
2023/07/14 00:14:51;;;;;;;;;;;15.20;99.90;;;;;;7309801;19;11348;-70
2023/07/14 00:17:20;;;;;;;;;;;15.10;99.90;;;;;;7305257;19;8944;-70
2023/07/14 00:19:49;;;;;;;;;;;15.10;99.90;;;;;;7303812;19;9249;-70
2023/07/14 00:22:18;;;;;;;;;;;15.10;99.90;;;;;;7305128;19;9280;-70
2023/07/14 00:24:50;;;;;;;;;;;15.00;99.90;;;;;;7302819;19;9122;-71
2023/07/14 00:27:21;;;;;;;;;;;14.90;99.90;;;;;;7305447;19;9244;-70
2023/07/14 00:29:52;;;;;;;;;;;14.90;99.90;;;;;;7304073;19;9486;-70
2023/07/14 00:32:24;;;;;;;;;;;14.90;99.90;;;;;;7304611;19;9352;-70
2023/07/14 00:34:53;;;;;;;;;;;14.80;99.90;;;;;;7306235;19;9261;-70
2023/07/14 00:37:22;;;;;;;;;;;14.80;99.90;;;;;;7306646;19;9449;-69
2023/07/14 00:39:54;;;;;;;;;;;14.80;99.90;;;;;;7304125;19;9205;-70
2023/07/14 00:42:23;;;;;;;;;;;14.70;99.90;;;;;;7301671;19;8948;-70
2023/07/14 00:44:57;;;;;;;;;;;14.70;99.90;;;;;;7302062;19;9741;-70
2023/07/14 00:47:30;;;;;;;;;;;14.70;99.90;;;;;;7306451;19;9417;-70
2023/07/14 00:50:01;;;;;;;;;;;14.70;99.90;;;;;;7303509;19;10590;-70
2023/07/14 00:52:36;;;;;;;;;;;14.70;99.90;;;;;;7304474;19;9131;-70
2023/07/14 00:55:43;;;;;;;;;;;14.70;99.90;;;;;;7302370;19;9677;-70
2023/07/14 00:58:18;;;;;;;;;;;14.70;99.90;;;;;;7303566;19;9232;-70
2023/07/14 01:01:04;;;;;;;;;;;14.60;99.90;;;;;;7303739;19;9651;-70
2023/07/14 01:03:39;;;;;;;;;;;14.60;99.90;;;;;;7305454;19;9292;-70
2023/07/14 01:06:14;;;;;;;;;;;14.50;99.90;;;;;;7302550;19;9557;-70
2023/07/14 01:08:52;;;;;;;;;;;14.50;99.90;;;;;;7302689;19;9737;-70
2023/07/14 01:11:29;;;;;;;;;;;14.40;99.90;;;;;;7303794;19;9308;-70
2023/07/14 01:14:01;;;;;;;;;;;14.50;99.90;;;;;;7308081;19;12503;-70
2023/07/14 01:16:34;;;;;;;;;;;14.50;99.90;;;;;;7303710;19;9490;-70
2023/07/14 01:19:06;;;;;;;;;;;14.60;99.90;;;;;;7303945;19;10751;-70
2023/07/14 01:21:37;;;;;;;;;;;14.60;99.90;;;;;;7302339;19;9272;-70
2023/07/14 01:24:18;;;;;;;;;;;14.60;99.90;;;;;;7302369;19;9335;-70
2023/07/14 01:27:04;;;;;;;;;;;14.70;99.90;;;;;;7304231;19;9256;-70
2023/07/14 01:29:35;;;;;;;;;;;14.60;99.90;;;;;;7303291;19;9339;-70
2023/07/14 01:32:08;;;;;;;;;;;14.50;99.90;;;;;;7303690;19;8944;-70
2023/07/14 01:34:37;;;;;;;;;;;14.40;99.90;;;;;;7301913;19;9262;-69
2023/07/14 01:37:07;;;;;;;;;;;14.40;99.90;;;;;;7307198;19;9625;-69
2023/07/14 01:39:37;;;;;;;;;;;14.30;99.90;;;;;;7303485;19;9376;-70
2023/07/14 01:42:09;;;;;;;;;;;14.30;99.90;;;;;;7303010;19;9414;-69
2023/07/14 01:44:40;;;;;;;;;;;14.30;99.90;;;;;;7302250;19;9248;-70
2023/07/14 01:47:14;;;;;;;;;;;14.30;99.90;;;;;;7302878;19;9351;-69
2023/07/14 01:49:49;;;;;;;;;;;14.20;99.90;;;;;;7303146;19;9275;-69
2023/07/14 01:52:24;;;;;;;;;;;14.30;99.90;;;;;;7302945;19;9220;-70
2023/07/14 01:54:59;;;;;;;;;;;14.20;99.90;;;;;;7302050;19;9801;-69
2023/07/14 01:57:36;;;;;;;;;;;14.20;99.90;;;;;;7304253;19;9324;-70
2023/07/14 02:00:11;;;;;;;;;;;14.10;99.90;;;;;;7302764;19;9778;-69
2023/07/14 02:02:43;;;;;;;;;;;14.10;99.90;;;;;;7307566;19;9253;-70
2023/07/14 02:05:24;;;;;;;;;;;14.10;99.90;;;;;;7308104;19;9255;-70
2023/07/14 02:07:54;;;;;;;;;;;14.00;99.90;;;;;;7310586;19;9347;-70
2023/07/14 02:10:24;;;;;;;;;;;14.00;99.90;;;;;;7308672;19;9478;-70
2023/07/14 02:12:57;;;;;;;;;;;14.00;99.90;;;;;;7311047;19;9214;-69
2023/07/14 02:15:31;;;;;;;;;;;13.90;99.90;;;;;;7312050;19;9732;-69
2023/07/14 02:18:02;;;;;;;;;;;13.80;99.90;;;;;;7310607;19;13347;-70
2023/07/14 02:20:36;;;;;;;;;;;13.80;99.90;;;;;;7308195;19;10951;-69
2023/07/14 02:23:12;;;;;;;;;;;13.80;99.90;;;;;;7309459;19;9249;-69
2023/07/14 02:25:46;;;;;;;;;;;13.70;99.90;;;;;;7305438;19;9272;-69
2023/07/14 02:28:18;;;;;;;;;;;13.60;99.90;;;;;;7307592;19;9463;-69
2023/07/14 02:30:53;;;;;;;;;;;13.60;99.90;;;;;;7304212;19;9316;-69
2023/07/14 02:33:28;;;;;;;;;;;13.60;99.90;;;;;;7301947;19;9779;-69
2023/07/14 02:36:07;;;;;;;;;;;13.60;99.90;;;;;;7308595;19;9613;-69
2023/07/14 02:38:36;;;;;;;;;;;13.60;99.90;;;;;;7307577;19;9914;-69
2023/07/14 02:41:15;;;;;;;;;;;13.60;99.90;;;;;;7308862;19;10063;-69
2023/07/14 02:43:54;;;;;;;;;;;13.60;99.90;;;;;;7308963;19;9475;-69
2023/07/14 02:46:30;;;;;;;;;;;13.60;99.90;;;;;;7308245;19;9445;-69
2023/07/14 02:49:00;;;;;;;;;;;13.60;99.90;;;;;;7308173;19;9387;-69
2023/07/14 02:51:29;;;;;;;;;;;13.60;99.90;;;;;;7307840;19;11242;-70
2023/07/14 02:53:58;;;;;;;;;;;13.60;99.90;;;;;;7308226;19;9220;-69
2023/07/14 02:56:27;;;;;;;;;;;13.60;99.90;;;;;;7310666;19;9244;-69
2023/07/14 02:58:59;;;;;;;;;;;13.60;99.90;;;;;;7307922;19;9225;-69
2023/07/14 03:01:32;;;;;;;;;;;13.60;99.90;;;;;;7307913;19;9540;-69
2023/07/14 03:04:02;;;;;;;;;;;13.60;99.90;;;;;;7309035;19;10707;-69
2023/07/14 03:06:31;;;;;;;;;;;13.60;99.90;;;;;;7308926;19;9326;-69
2023/07/14 03:09:00;;;;;;;;;;;13.60;99.90;;;;;;7305284;19;9520;-70
2023/07/14 03:11:30;;;;;;;;;;;13.60;99.90;;;;;;7306589;19;9674;-69
2023/07/14 03:14:02;;;;;;;;;;;13.60;99.90;;;;;;7310066;19;9341;-69
2023/07/14 03:16:32;;;;;;;;;;;13.60;99.90;;;;;;7306134;19;9276;-70
2023/07/14 03:19:01;;;;;;;;;;;13.60;99.90;;;;;;7305921;19;9670;-69
2023/07/14 03:21:31;;;;;;;;;;;13.60;99.90;;;;;;7303914;19;9509;-69
2023/07/14 03:24:00;;;;;;;;;;;13.50;99.90;;;;;;7302610;19;9599;-70
2023/07/14 03:26:29;;;;;;;;;;;13.60;99.90;;;;;;7308543;19;9396;-69
2023/07/14 03:29:03;;;;;;;;;;;13.60;99.90;;;;;;7304677;19;9261;-69
2023/07/14 03:31:32;;;;;;;;;;;13.70;99.90;;;;;;7308413;19;9550;-69
2023/07/14 03:34:01;;;;;;;;;;;13.70;99.90;;;;;;7303068;19;9589;-69
2023/07/14 03:36:30;;;;;;;;;;;13.70;99.90;;;;;;7310714;19;9653;-69
2023/07/14 03:39:22;;;;;;;;;;;13.60;99.90;;;;;;7302206;19;9382;-69
2023/07/14 03:41:51;;;;;;;;;;;13.60;99.90;;;;;;7304820;19;9321;-70
2023/07/14 03:44:24;;;;;;;;;;;13.70;99.90;;;;;;7306149;19;9447;-69
2023/07/14 03:46:53;;;;;;;;;;;13.70;99.90;;;;;;7306102;19;9612;-69
2023/07/14 03:49:23;;;;;;;;;;;13.70;99.90;;;;;;7302974;19;9236;-70
2023/07/14 03:51:54;;;;;;;;;;;13.70;99.90;;;;;;7307550;19;10612;-69
2023/07/14 03:54:24;;;;;;;;;;;13.80;99.90;;;;;;7302738;19;9232;-70
2023/07/14 03:56:54;;;;;;;;;;;13.70;99.90;;;;;;7305196;19;9602;-69
2023/07/14 03:59:25;;;;;;;;;;;13.70;99.90;;;;;;7303424;19;10256;-70
2023/07/14 04:01:54;;;;;;;;;;;13.70;99.90;;;;;;7304906;19;9334;-69
2023/07/14 04:04:24;;;;;;;;;;;13.60;99.90;;;;;;7304757;19;9438;-70
2023/07/14 04:06:53;;;;;;;;;;;13.60;99.90;;;;;;7304017;19;9478;-70
2023/07/14 04:09:22;;;;;;;;;;;13.70;99.90;;;;;;7306942;19;9272;-69
2023/07/14 04:11:51;;;;;;;;;;;13.70;99.90;;;;;;7305586;19;9020;-69
2023/07/14 04:14:20;;;;;;;;;;;13.70;99.90;;;;;;7310052;19;9729;-69
2023/07/14 04:16:52;;;;;;;;;;;13.70;99.90;;;;;;7304875;19;9719;-69
2023/07/14 04:19:21;;;;;;;;;;;13.70;99.90;;;;;;7304372;19;9545;-69
2023/07/14 04:21:50;;;;;;;;;;;13.70;99.90;;;;;;7306114;19;9454;-69
2023/07/14 04:24:19;;;;;;;;;;;13.70;99.90;;;;;;7303042;19;9423;-69
2023/07/14 04:26:49;;;;;;;;;;;13.70;99.90;;;;;;7303373;19;10308;-69
2023/07/14 04:29:18;;;;;;;;;;;13.70;99.90;;;;;;7305148;19;9555;-69
2023/07/14 04:31:47;;;;;;;;;;;13.70;99.90;;;;;;7303793;19;9631;-70
2023/07/14 04:34:19;;;;;;;;;;;13.70;99.90;;;;;;7304882;19;9509;-69
2023/07/14 04:36:48;;;;;;;;;;;13.80;99.90;;;;;;7310635;19;9220;-70
2023/07/14 04:39:17;;;;;;;;;;;13.80;99.90;;;;;;7304610;19;9457;-70
2023/07/14 04:41:46;;;;;;;;;;;13.90;99.90;;;;;;7304387;19;9157;-69
2023/07/14 04:44:17;;;;;;;;;;;13.90;99.90;;;;;;7303974;19;11078;-69
2023/07/14 04:46:48;;;;;;;;;;;13.90;99.90;;;;;;7304329;19;10976;-69
2023/07/14 04:49:20;;;;;;;;;;;14.00;99.90;;;;;;7304351;19;9260;-69
2023/07/14 04:51:50;;;;;;;;;;;14.10;99.90;;;;;;7306254;19;9671;-70
2023/07/14 04:54:23;;;;;;;;;;;14.00;99.90;;;;;;7304255;19;9477;-69
2023/07/14 04:56:53;;;;;;;;;;;14.10;99.90;;;;;;7304964;19;9283;-70
2023/07/14 04:59:22;;;;;;;;;;;14.10;99.90;;;;;;7305102;19;9647;-70
2023/07/14 05:01:52;;;;;;;;;;;14.20;99.90;;;;;;7301977;19;11050;-70
2023/07/14 05:04:24;;;;;;;;;;;14.20;99.90;;;;;;7300539;19;11130;-69
2023/07/14 05:06:53;;;;;;;;;;;14.30;99.90;;;;;;7302779;19;9452;-70
2023/07/14 05:09:23;;;;;;;;;;;14.30;99.90;;;;;;7304136;19;9554;-70
2023/07/14 05:11:52;;;;;;;;;;;14.40;99.90;;;;;;7304214;19;10915;-70
2023/07/14 05:14:21;;;;;;;;;;;14.50;99.90;;;;;;7309610;19;10482;-70
2023/07/14 05:16:50;;;;;;;;;;;14.60;99.90;;;;;;7306029;19;10456;-70
2023/07/14 05:19:19;;;;;;;;;;;14.70;99.90;;;;;;7303784;19;9331;-69
2023/07/14 05:21:50;;;;;;;;;;;14.70;99.90;;;;;;7303152;19;9248;-70
2023/07/14 05:24:20;;;;;;;;;;;14.80;99.90;;;;;;7302671;19;9720;-69
2023/07/14 05:26:49;;;;;;;;;;;14.80;99.90;;;;;;7304087;19;13280;-69
2023/07/14 05:29:18;;;;;;;;;;;14.90;99.90;;;;;;7302064;19;9526;-70
2023/07/14 05:31:47;;;;;;;;;;;14.90;99.90;;;;;;7303892;19;9658;-70
2023/07/14 05:34:17;;;;;;;;;;;14.90;99.90;;;;;;7303524;19;9248;-69
2023/07/14 05:36:46;;;;;;;;;;;15.00;99.90;;;;;;7312461;19;9640;-69
2023/07/14 05:39:18;;;;;;;;;;;15.10;99.90;;;;;;7310248;19;9434;-69
2023/07/14 05:41:47;;;;;;;;;;;15.20;99.90;;;;;;7311723;19;9297;-70
2023/07/14 05:44:17;;;;;;;;;;;15.20;99.90;;;;;;7307963;19;9260;-70
2023/07/14 05:46:46;;;;;;;;;;;15.30;99.90;;;;;;7313221;19;9589;-69
2023/07/14 05:49:17;;;;;;;;;;;15.40;99.90;;;;;;7275623;19;9754;-70
2023/07/14 05:51:46;;;;;;;;;;;15.60;99.90;;;;;;7277355;19;9837;-69
2023/07/14 05:54:19;;;;;;;;;;;15.70;99.90;;;;;;7268799;19;11272;-69
2023/07/14 05:56:48;;;;;;;;;;;15.80;99.90;;;;;;7274713;19;9331;-73
2023/07/14 05:59:17;;;;;;;;;;;15.80;99.90;;;;;;7271682;19;9382;-68
2023/07/14 06:01:48;;;;;;;;;;;15.80;99.90;;;;;;7279703;19;9172;-73
2023/07/14 06:04:19;;;;;;;;;;;15.70;99.90;;;;;;7299808;19;9610;-69
2023/07/14 06:06:48;;;;;;;;;;;15.80;99.90;;;;;;7302662;19;9245;-75
2023/07/14 06:09:20;;;;;;;;;;;16.10;99.90;;;;;;7304473;19;9286;-68
2023/07/14 06:11:49;;;;;;;;;;;16.00;99.90;;;;;;7304026;19;9072;-70
2023/07/14 06:14:18;;;;;;;;;;;16.20;99.90;;;;;;7312802;19;9366;-69
2023/07/14 06:16:47;;;;;;;;;;;16.30;99.90;;;;;;7303046;19;9253;-70
2023/07/14 06:19:17;;;;;;;;;;;16.40;99.90;;;;;;7302487;19;9366;-71
2023/07/14 06:21:46;;;;;;;;;;;16.50;99.90;;;;;;7310055;19;9217;-71
2023/07/14 06:24:15;;;;;;;;;;;16.80;99.90;;;;;;7302933;19;9419;-72
2023/07/14 06:26:47;;;;;;;;;;;16.90;99.90;;;;;;7309406;19;9295;-71
2023/07/14 06:29:16;;;;;;;;;;;17.00;99.90;;;;;;7304835;19;9244;-71
2023/07/14 06:31:46;;;;;;;;;;;17.00;99.90;;;;;;7308021;19;9355;-71
2023/07/14 06:34:16;;;;;;;;;;;17.10;99.90;;;;;;7304995;19;9220;-71
2023/07/14 06:36:50;;;;;;;;;;;17.30;99.90;;;;;;7310988;19;9286;-71
2023/07/14 06:39:20;;;;;;;;;;;17.40;99.90;;;;;;7307564;19;9161;-71
2023/07/14 06:41:52;;;;;;;;;;;17.50;99.90;;;;;;7300638;19;10332;-71
2023/07/14 06:44:21;;;;;;;;;;;17.70;99.90;;;;;;7303580;19;9548;-71
2023/07/14 06:46:50;;;;;;;;;;;17.80;99.90;;;;;;7304913;19;9340;-71
2023/07/14 06:49:19;;;;;;;;;;;17.90;99.90;;;;;;7305267;19;9397;-71
2023/07/14 06:51:48;;;;;;;;;;;17.90;99.90;;;;;;7303539;19;9281;-71
2023/07/14 06:54:18;;;;;;;;;;;17.90;99.90;;;;;;7304110;19;9329;-71
2023/07/14 06:56:47;;;;;;;;;;;17.90;99.90;;;;;;7304401;19;9954;-71
2023/07/14 06:59:19;;;;;;;;;;;18.00;99.90;;;;;;7304856;19;9590;-71
2023/07/14 07:01:48;;;;;;;;;;;18.00;99.90;;;;;;7306076;19;9489;-71
2023/07/14 07:04:17;;;;;;;;;;;18.00;99.90;;;;;;7302543;19;9442;-71
2023/07/14 07:06:47;;;;;;;;;;;18.10;99.90;;;;;;7306034;19;9256;-71
2023/07/14 07:09:16;;;;;;;;;;;18.10;99.90;;;;;;7305457;19;9456;-71
2023/07/14 07:11:46;;;;;;;;;;;18.20;99.90;;;;;;7306913;19;9360;-71
2023/07/14 07:14:15;;;;;;;;;;;18.20;99.90;;;;;;7304616;19;10673;-71
2023/07/14 07:16:47;;;;;;;;;;;18.20;99.90;;;;;;7302947;19;9511;-71
2023/07/14 07:19:19;;;;;;;;;;;18.20;99.90;;;;;;7301873;19;9854;-71
2023/07/14 07:21:48;;;;;;;;;;;18.20;99.90;;;;;;7303588;19;9233;-71
2023/07/14 07:24:17;;;;;;;;;;;18.30;99.90;;;;;;7304801;19;9271;-71
2023/07/14 07:26:47;;;;;;;;;;;18.30;99.90;;;;;;7306478;19;9249;-72
2023/07/14 07:29:16;;;;;;;;;;;18.40;99.90;;;;;;7305277;19;9278;-71
2023/07/14 07:31:48;;;;;;;;;;;18.40;99.90;;;;;;7307680;19;10934;-71
2023/07/14 07:34:20;;;;;;;;;;;18.50;99.90;;;;;;7303837;19;10452;-71
2023/07/14 07:36:49;;;;;;;;;;;18.60;99.90;;;;;;7310321;19;9288;-71
2023/07/14 07:39:21;;;;;;;;;;;18.80;99.90;;;;;;7303925;19;9232;-71
2023/07/14 07:41:50;;;;;;;;;;;19.10;99.90;;;;;;7306794;19;9329;-72
2023/07/14 07:44:19;;;;;;;;;;;19.30;99.90;;;;;;7304954;19;9273;-71
2023/07/14 07:46:51;;;;;;;;;;;19.40;99.90;;;;;;7304633;19;9288;-72
2023/07/14 07:49:20;;;;;;;;;;;19.60;99.90;;;;;;7290647;19;9423;-71
2023/07/14 07:51:50;;;;;;;;;;;19.80;99.90;;;;;;7300290;19;9162;-71
2023/07/14 07:54:21;;;;;;;;;;;19.80;99.90;;;;;;7296354;19;11232;-71
2023/07/14 07:56:50;;;;;;;;;;;19.90;99.90;;;;;;7306364;19;9389;-71
2023/07/14 07:59:19;;;;;;;;;;;20.00;99.90;;;;;;7293086;19;9120;-71
2023/07/14 08:01:51;;;;;;;;;;;20.30;99.90;;;;;;7306732;19;9438;-71
2023/07/14 08:04:21;;;;;;;;;;;20.70;99.90;;;;;;7299293;19;10955;-71
2023/07/14 08:06:50;;;;;;;;;;;21.10;99.90;;;;;;7307474;19;9559;-71
2023/07/14 08:09:20;;;;;;;;;;;21.40;99.90;;;;;;7304870;19;9236;-72
2023/07/14 08:11:57;;;;;;;;;;;21.70;99.90;;;;;;7306862;19;9325;-71
2023/07/14 08:14:27;;;;;;;;;;;21.90;99.90;;;;;;7311538;19;10189;-71
2023/07/14 08:16:58;;;;;;;;;;;21.90;99.90;;;;;;7302450;19;9521;-71
2023/07/14 08:19:28;;;;;;;;;;;22.20;99.90;;;;;;7305369;19;9412;-71
2023/07/14 08:21:57;;;;;;;;;;;22.40;99.90;;;;;;7302846;19;9220;-71
2023/07/14 08:24:46;;;;;;;;;;;22.70;99.90;;;;;;7298318;19;9240;-72
2023/07/14 08:27:15;;;;;;;;;;;22.90;99.90;;;;;;7307800;19;9382;-72
2023/07/14 08:29:45;;;;;;;;;;;23.10;99.20;;;;;;7301500;19;9256;-71
2023/07/14 08:32:17;;;;;;;;;;;23.20;99.90;;;;;;7302314;19;8944;-71
2023/07/14 08:34:47;;;;;;;;;;;23.30;99.90;;;;;;7305410;19;11666;-71
2023/07/14 08:37:16;;;;;;;;;;;23.40;98.80;;;;;;7301679;19;9667;-72
2023/07/14 08:39:46;;;;;;;;;;;23.40;96.70;;;;;;7302312;19;9629;-71
2023/07/14 08:42:37;;;;;;;;;;;23.50;96.60;;;;;;7303736;19;9636;-72
2023/07/14 08:45:29;;;;;;;;;;;23.70;96.90;;;;;;7304759;19;10640;-71
2023/07/14 08:48:17;;;;;;;;;;;23.70;98.60;;;;;;7297781;19;10338;-72
2023/07/14 08:50:52;;;;;;;;;;;23.80;97.30;;;;;;7302802;19;9427;-71
2023/07/14 08:53:27;;;;;;;;;;;23.80;97.70;;;;;;7298809;19;10478;-72
2023/07/14 08:56:04;;;;;;;;;;;23.60;99.40;;;;;;7302113;19;11636;-72
2023/07/14 08:58:39;;;;;;;;;;;23.40;99.90;;;;;;7298696;19;10633;-72
2023/07/14 09:01:15;;;;;;;;;;;23.20;96.30;;;;;;7298379;19;9428;-71
2023/07/14 09:03:51;;;;;;;;;;;23.00;98.40;;;;;;7301457;19;9255;-71
2023/07/14 09:06:32;;;;;;;;;;;23.10;98.50;;;;;;7258826;19;10815;-71
2023/07/14 09:09:02;;;;;;;;;;;23.30;99.50;;;;;;7261246;19;9257;-71
2023/07/14 09:11:46;;;;;;;;;;;23.40;98.90;;;;;;7260347;19;9645;-72
2023/07/14 09:14:46;;;;;;;;;;;23.30;96.60;;;;;;7270688;19;9236;-71
2023/07/14 09:17:26;;;;;;;;;;;23.30;94.40;;;;;;7269675;19;9564;-72
2023/07/14 09:20:28;;;;;;;;;;;23.30;98.90;;;;;;7266063;19;9775;-71
2023/07/14 09:23:19;;;;;;;;;;;23.20;99.10;;;;;;7259957;19;10587;-72
2023/07/14 09:25:57;;;;;;;;;;;23.30;99.90;;;;;;7258521;19;9401;-71
2023/07/14 09:28:36;;;;;;;;;;;23.30;98.40;;;;;;7265704;19;9361;-69
2023/07/14 09:31:15;;;;;;;;;;;23.40;99.10;;;;;;7265442;19;9363;-71
2023/07/14 09:33:52;;;;;;;;;;;23.40;94.90;;;;;;7284208;19;10405;-71
2023/07/14 09:36:23;;;;;;;;;;;23.30;94.90;;;;;;7303790;19;9341;-71
2023/07/14 09:39:02;;;;;;;;;;;23.10;96.80;;;;;;7302000;19;9473;-71
2023/07/14 09:41:32;;;;;;;;;;;23.30;97.50;;;;;;7301753;19;9283;-71
2023/07/14 09:44:02;;;;;;;;;;;23.10;95.90;;;;;;7298648;19;9293;-71
2023/07/14 09:46:41;;;;;;;;;;;23.10;97.50;;;;;;7303548;19;9222;-71
2023/07/14 09:49:19;;;;;;;;;;;23.00;96.40;;;;;;7299612;19;9216;-71
2023/07/14 09:52:04;;;;;;;;;;;23.10;95.60;;;;;;7303054;19;9449;-71
2023/07/14 09:54:37;;;;;;;;;;;23.20;98.20;;;;;;7302378;19;9459;-71
2023/07/14 09:57:14;;;;;;;;;;;23.10;98.50;;;;;;7300032;19;9636;-71
2023/07/14 09:59:56;;;;;;;;;;;22.90;97.40;;;;;;7298358;19;9198;-72
2023/07/14 10:02:31;;;;;;;;;;;22.60;96.70;;;;;;7300583;19;9299;-71
2023/07/14 10:05:04;;;;;;;;;;;22.60;97.70;;;;;;7298078;19;10252;-72
2023/07/14 10:07:40;;;;;;;;;;;22.80;96.90;;;;;;7302712;19;10421;-71
2023/07/14 10:10:15;;;;;;;;;;;22.90;95.90;;;;;;7298064;19;9224;-71
2023/07/14 10:12:49;;;;;;;;;;;23.20;98.10;;;;;;7301561;19;9126;-71
2023/07/14 10:15:32;;;;;;;;;;;23.50;97.50;;;;;;7306404;19;9251;-71
2023/07/14 10:18:05;;;;;;;;;;;23.70;96.00;;;;;;7301860;19;9239;-71
2023/07/14 10:20:36;;;;;;;;;;;23.90;94.10;;;;;;7299787;19;9403;-72
2023/07/14 10:23:05;;;;;;;;;;;23.90;91.40;;;;;;7308084;19;9315;-71
2023/07/14 10:25:40;;;;;;;;;;;23.80;92.30;;;;;;7301701;19;9569;-71
2023/07/14 10:28:16;;;;;;;;;;;23.70;94.60;;;;;;7309036;19;9225;-71
2023/07/14 10:30:58;;;;;;;;;;;23.90;94.30;;;;;;7306130;19;9219;-72
2023/07/14 10:33:34;;;;;;;;;;;24.00;90.40;;;;;;7309451;19;11042;-71
2023/07/14 10:36:10;;;;;;;;;;;24.10;91.40;;;;;;7309167;19;9100;-72
2023/07/14 10:38:50;;;;;;;;;;;24.10;93.30;;;;;;7307131;19;9571;-71
2023/07/14 10:41:26;;;;;;;;;;;23.90;92.80;;;;;;7302997;19;10469;-71
2023/07/14 10:44:05;;;;;;;;;;;23.80;93.50;;;;;;7307231;19;9399;-71
2023/07/14 10:46:39;;;;;;;;;;;23.60;92.70;;;;;;7307538;19;11019;-71
2023/07/14 10:49:24;;;;;;;;;;;23.40;92.40;;;;;;7306771;19;9256;-71
2023/07/14 10:51:59;;;;;;;;;;;23.10;91.60;;;;;;7308547;19;11259;-71
2023/07/14 10:54:51;;;;;;;;;;;23.10;93.00;;;;;;7306926;19;9294;-71
2023/07/14 10:57:37;;;;;;;;;;;22.90;92.40;;;;;;7307630;19;9257;-72
2023/07/14 11:00:28;;;;;;;;;;;22.80;90.60;;;;;;7307112;19;9922;-71
2023/07/14 11:03:15;;;;;;;;;;;22.80;93.00;;;;;;7305712;19;12174;-71
2023/07/14 11:05:55;;;;;;;;;;;22.80;92.30;;;;;;7306233;19;9397;-71
2023/07/14 11:08:27;;;;;;;;;;;23.30;94.90;;;;;;7307551;19;9391;-72
2023/07/14 11:11:05;;;;;;;;;;;23.50;93.30;;;;;;7304518;19;9579;-71
2023/07/14 11:13:49;;;;;;;;;;;23.60;92.00;;;;;;7311098;19;9497;-71
2023/07/14 11:16:31;;;;;;;;;;;23.90;91.30;;;;;;7306823;19;9432;-71
2023/07/14 11:19:09;;;;;;;;;;;24.00;90.30;;;;;;7306355;19;9205;-71
2023/07/14 11:21:52;;;;;;;;;;;23.90;90.00;;;;;;7307163;19;9806;-71
2023/07/14 11:24:24;;;;;;;;;;;24.10;89.30;;;;;;7302946;19;11096;-71
2023/07/14 11:27:16;;;;;;;;;;;24.40;86.20;;;;;;7307447;19;11207;-71
2023/07/14 11:29:55;;;;;;;;;;;24.60;82.50;;;;;;7305817;19;9328;-71
2023/07/14 11:32:31;;;;;;;;;;;24.60;82.30;;;;;;7305024;19;9639;-71
2023/07/14 11:35:08;;;;;;;;;;;24.40;82.50;;;;;;7309291;19;9339;-71
2023/07/14 11:37:49;;;;;;;;;;;24.10;81.20;;;;;;7305556;19;9826;-71
2023/07/14 11:40:23;;;;;;;;;;;23.90;83.40;;;;;;7305286;19;9318;-71
2023/07/14 11:43:00;;;;;;;;;;;23.80;82.60;;;;;;7305454;19;9513;-71
2023/07/14 11:45:36;;;;;;;;;;;23.70;85.10;;;;;;7303801;19;9733;-71
2023/07/14 11:48:06;;;;;;;;;;;23.60;81.70;;;;;;7298636;19;9465;-71
2023/07/14 11:50:37;;;;;;;;;;;23.60;82.50;;;;;;7302905;19;9530;-70
2023/07/14 11:53:20;;;;;;;;;;;23.60;81.90;;;;;;7302397;19;10602;-71
2023/07/14 11:55:53;;;;;;;;;;;23.90;83.90;;;;;;7305405;19;10226;-70
2023/07/14 11:58:30;;;;;;;;;;;24.10;80.10;;;;;;7307648;19;9301;-70
2023/07/14 12:01:04;;;;;;;;;;;24.30;81.00;;;;;;7304268;19;9147;-71
2023/07/14 12:03:36;;;;;;;;;;;24.10;79.80;;;;;;7305471;19;9276;-71
2023/07/14 12:06:46;;;;;;;;;;;24.00;79.10;;;;;;7302970;19;9264;-70
2023/07/14 12:09:18;;;;;;;;;;;23.70;81.50;;;;;;7303732;19;9566;-71
2023/07/14 12:11:54;;;;;;;;;;;23.60;82.70;;;;;;7304339;19;10929;-70
2023/07/14 12:14:51;;;;;;;;;;;23.50;83.00;;;;;;7309269;19;9293;-70
2023/07/14 12:17:50;;;;;;;;;;;23.40;81.70;;;;;;7302243;19;9317;-71
2023/07/14 12:20:43;;;;;;;;;;;23.40;82.40;;;;;;7301189;19;9398;-71
2023/07/14 12:23:27;;;;;;;;;;;23.90;81.30;;;;;;7301821;19;9159;-71
2023/07/14 12:26:15;;;;;;;;;;;24.20;81.40;;;;;;7298271;19;9348;-71
2023/07/14 12:28:47;;;;;;;;;;;24.40;78.40;;;;;;7299980;19;9739;-71
2023/07/14 12:31:17;;;;;;;;;;;24.30;79.60;;;;;;7300107;19;9369;-71
2023/07/14 12:33:50;;;;;;;;;;;24.40;77.70;;;;;;7301022;19;11286;-70
2023/07/14 12:36:22;;;;;;;;;;;24.70;79.80;;;;;;7305670;19;9292;-71
2023/07/14 12:38:53;;;;;;;;;;;24.90;78.40;;;;;;7300640;19;9408;-71
2023/07/14 12:41:23;;;;;;;;;;;24.90;76.70;;;;;;7299556;19;9359;-71
2023/07/14 12:43:57;;;;;;;;;;;25.00;76.80;;;;;;7297682;19;9256;-71
2023/07/14 12:46:32;;;;;;;;;;;25.10;76.20;;;;;;7295892;19;9483;-71
2023/07/14 12:49:09;;;;;;;;;;;25.20;75.40;;;;;;7260770;19;11134;-70
2023/07/14 12:51:38;;;;;;;;;;;25.30;74.40;;;;;;7266242;19;9584;-71
2023/07/14 12:54:16;;;;;;;;;;;25.40;73.40;;;;;;7266616;19;9390;-70
2023/07/14 12:56:45;;;;;;;;;;;25.30;72.40;;;;;;7268805;19;9329;-71
2023/07/14 12:59:18;;;;;;;;;;;25.40;74.10;;;;;;7267527;19;9404;-71
2023/07/14 13:01:52;;;;;;;;;;;25.30;72.20;;;;;;7269515;19;9244;-71
2023/07/14 13:04:26;;;;;;;;;;;25.20;72.40;;;;;;7296675;19;9478;-71
2023/07/14 13:07:06;;;;;;;;;;;25.10;73.10;;;;;;7300460;19;9332;-71
2023/07/14 13:09:36;;;;;;;;;;;24.90;73.20;;;;;;7301044;19;10524;-71
2023/07/14 13:12:07;;;;;;;;;;;24.80;73.90;;;;;;7305331;19;9415;-71
2023/07/14 13:14:42;;;;;;;;;;;24.80;73.80;;;;;;7307293;19;9254;-71
2023/07/14 13:17:23;;;;;;;;;;;24.70;74.60;;;;;;7305356;19;9248;-71
2023/07/14 13:19:55;;;;;;;;;;;24.60;73.30;;;;;;7302527;19;9260;-71
2023/07/14 13:22:28;;;;;;;;;;;24.60;73.30;;;;;;7305251;19;9337;-71
2023/07/14 13:25:07;;;;;;;;;;;24.70;73.80;;;;;;7299770;19;9623;-71
2023/07/14 13:27:40;;;;;;;;;;;24.70;73.10;;;;;;7302323;19;9250;-71
2023/07/14 13:30:22;;;;;;;;;;;24.70;73.30;;;;;;7302219;19;9205;-71
2023/07/14 13:32:53;;;;;;;;;;;24.70;70.60;;;;;;7302467;19;9241;-71
2023/07/14 13:35:30;;;;;;;;;;;24.70;73.00;;;;;;7307079;19;9482;-70
2023/07/14 13:38:02;;;;;;;;;;;24.60;73.10;;;;;;7303661;19;9241;-71
2023/07/14 13:40:38;;;;;;;;;;;24.60;72.20;;;;;;7302489;19;9556;-71
2023/07/14 13:43:20;;;;;;;;;;;24.70;73.00;;;;;;7300858;19;9418;-70
2023/07/14 13:45:59;;;;;;;;;;;24.80;73.10;;;;;;7299103;19;9446;-71
2023/07/14 13:48:34;;;;;;;;;;;24.80;73.60;;;;;;7305614;19;9248;-71
2023/07/14 13:51:14;;;;;;;;;;;24.70;73.70;;;;;;7301140;19;9264;-71
2023/07/14 13:53:44;;;;;;;;;;;24.60;73.00;;;;;;7302166;19;9469;-71
2023/07/14 13:56:34;;;;;;;;;;;24.70;72.90;;;;;;7303128;19;9295;-71
2023/07/14 13:59:16;;;;;;;;;;;24.70;71.80;;;;;;7309227;19;10633;-71
2023/07/14 14:01:46;;;;;;;;;;;24.70;72.10;;;;;;7310305;19;9280;-71
2023/07/14 14:04:17;;;;;;;;;;;24.60;70.30;;;;;;7307964;19;9323;-71
2023/07/14 14:06:49;;;;;;;;;;;24.60;71.60;;;;;;7308882;19;9278;-71
2023/07/14 14:09:21;;;;;;;;;;;24.50;71.30;;;;;;7308385;19;9416;-71
2023/07/14 14:11:51;;;;;;;;;;;24.30;69.40;;;;;;7307262;19;9420;-71
2023/07/14 14:14:22;;;;;;;;;;;24.30;71.50;;;;;;7313865;19;9205;-71
2023/07/14 14:16:51;;;;;;;;;;;24.20;72.90;;;;;;7310128;19;9341;-71
2023/07/14 14:19:26;;;;;;;;;;;24.30;73.70;;;;;;7307260;19;9221;-71
2023/07/14 14:22:02;;;;;;;;;;;24.30;74.20;;;;;;7307522;19;9316;-71
2023/07/14 14:24:31;;;;;;;;;;;24.20;73.20;;;;;;7303789;19;11309;-71
2023/07/14 14:27:01;;;;;;;;;;;24.10;72.10;;;;;;7305933;19;10534;-71
2023/07/14 14:29:31;;;;;;;;;;;24.10;70.50;;;;;;7308463;19;9291;-71
2023/07/14 14:32:03;;;;;;;;;;;24.00;70.40;;;;;;7307395;19;9378;-71
2023/07/14 14:34:33;;;;;;;;;;;24.00;72.00;;;;;;7306683;19;8944;-71
2023/07/14 14:37:07;;;;;;;;;;;24.00;72.90;;;;;;7310963;19;10754;-71
2023/07/14 14:39:36;;;;;;;;;;;24.00;71.90;;;;;;7307863;19;9544;-71
2023/07/14 14:42:06;;;;;;;;;;;24.20;72.80;;;;;;7308484;19;10403;-71
2023/07/14 14:44:35;;;;;;;;;;;24.30;72.20;;;;;;7306626;19;8940;-71
2023/07/14 14:47:05;;;;;;;;;;;24.30;71.10;;;;;;7307096;19;10301;-71
2023/07/14 14:49:34;;;;;;;;;;;24.40;71.90;;;;;;7306762;19;9276;-71
2023/07/14 14:52:09;;;;;;;;;;;24.50;73.10;;;;;;7306158;19;9331;-71
2023/07/14 14:54:38;;;;;;;;;;;24.70;72.60;;;;;;7307891;19;8944;-71
2023/07/14 14:57:15;;;;;;;;;;;24.70;72.10;;;;;;7308734;19;9259;-71
2023/07/14 14:59:44;;;;;;;;;;;24.70;67.30;;;;;;7306687;19;9224;-70
2023/07/14 15:02:18;;;;;;;;;;;24.80;70.20;;;;;;7307752;19;9208;-71
2023/07/14 15:04:47;;;;;;;;;;;24.70;67.90;;;;;;7304408;19;9260;-71
2023/07/14 15:07:19;;;;;;;;;;;24.80;68.00;;;;;;7304178;19;9253;-71